• Join FlightAware (Why Join?)
  • Login
  • US Flag 
04:21PM EDT


 

Airport Tracker/Info


-or-


 

Live Flight TrackerFlight Track Log ✈ FIN767 ✈ 03-Nov-2013 ✈ EFHK / HEL - LOWW / VIE

Flight Track Log - Related Links

Times and Time Zones

All times are in EST time to prevent confusion due to time zone crossing. See the FIN767 flight status page for this flight to view local times or setup timezone preferences in your user account.

Time Position Orientation Groundspeed Altitude Reporting Facility
EST Latitude Longitude Course Direction KTS MPH feet Rate Location/Type
10:17AM 59.9851 24.6484 205° Southwest  Level Estimated
10:18AM 59.9020 24.5707 205° Southwest  Level Estimated
10:19AM 59.8139 24.4888 205° Southwest  Level Estimated
10:20AM 59.7257 24.4073 205° Southwest  Level Estimated
10:21AM 59.6375 24.3262 205° Southwest  Level Estimated
10:22AM 59.5493 24.2456 205° Southwest  Level Estimated
10:23AM 59.4610 24.1653 205° Southwest  Level Estimated
10:24AM 59.3726 24.0855 205° Southwest  Level Estimated
10:25AM 59.2842 24.0061 205° Southwest  Level Estimated
10:26AM 59.1957 23.9272 205° Southwest  Level Estimated
10:27AM 59.1072 23.8486 205° Southwest  Level Estimated
10:28AM 59.0187 23.7705 204° Southwest  Level Estimated
10:29AM 58.9301 23.6927 204° Southwest  Level Estimated
10:30AM 58.8414 23.6153 204° Southwest  Level Estimated
10:31AM 58.7528 23.5384 204° Southwest  Level Estimated
10:32AM 58.6640 23.4618 204° Southwest  Level Estimated
10:33AM 58.5752 23.3856 204° Southwest  Level Estimated
10:34AM 58.4864 23.3098 204° Southwest  Level Estimated
10:35AM 58.3975 23.2344 204° Southwest  Level Estimated
10:36AM 58.3086 23.1593 204° Southwest  Level Estimated
10:37AM 58.2197 23.0847 204° Southwest  Level Estimated
10:38AM 58.1307 23.0104 204° Southwest  Level Estimated
10:39AM 58.0416 22.9365 204° Southwest  Level Estimated
10:40AM 57.9525 22.8629 204° Southwest  Level Estimated
10:41AM 57.8634 22.7897 204° Southwest  Level Estimated
10:42AM 57.7742 22.7169 204° Southwest  Level Estimated
10:43AM 57.6850 22.6444 203° Southwest  Level Estimated
10:44AM 57.5958 22.5723 203° Southwest  Level Estimated
10:45AM 57.5065 22.5006 203° Southwest  Level Estimated
10:46AM 57.4171 22.4292 203° Southwest  Level Estimated
10:47AM 57.3278 22.3581 203° Southwest  Level Estimated
10:48AM 57.2383 22.2874 203° Southwest  Level Estimated
10:49AM 57.1489 22.2170 203° Southwest  Level Estimated
10:50AM 57.0594 22.1470 203° Southwest  Level Estimated
10:51AM 56.9699 22.0773 203° Southwest  Level Estimated
10:52AM 56.8803 22.0079 203° Southwest  Level Estimated
10:53AM 56.7907 21.9389 203° Southwest  Level Estimated
10:54AM 56.7010 21.8702 203° Southwest  Level Estimated
10:55AM 56.6114 21.8018 203° Southwest  Level Estimated
10:56AM 56.5216 21.7338 203° Southwest  Level Estimated
10:57AM 56.4319 21.6661 203° Southwest  Level Estimated
10:58AM 56.3421 21.5986 203° Southwest  Level Estimated
10:59AM 56.2523 21.5316 203° Southwest  Level Estimated
11:00AM 56.1624 21.4648 202° Southwest  Level Estimated
11:01AM 56.0725 21.3983 202° Southwest  Level Estimated
11:02AM 55.9825 21.3321 202° Southwest  Level Estimated
11:03AM 55.8926 21.2663 202° Southwest  Level Estimated
11:04AM 55.8026 21.2008 202° Southwest  Level Estimated
11:05AM 55.7125 21.1355 202° Southwest  Level Estimated
11:06AM 55.6224 21.0706 202° Southwest  Level Estimated
11:07AM 55.5323 21.0059 202° Southwest  Level Estimated
11:08AM 55.4422 20.9416 202° Southwest  Level Estimated
11:09AM 55.3520 20.8775 202° Southwest  Level Estimated
11:10AM 55.2618 20.8138 202° Southwest  Level Estimated
11:11AM 55.1715 20.7503 202° Southwest  Level Estimated
11:12AM 55.0812 20.6871 202° Southwest  Level Estimated
11:13AM 54.9909 20.6242 202° Southwest  Level Estimated
11:14AM 54.9006 20.5616 202° Southwest  Level Estimated
11:15AM 54.8102 20.4992 202° Southwest  Level Estimated
11:16AM 54.7156 20.4343 202° Southwest  Level Estimated
11:17AM 54.6209 20.3697 202° Southwest  Level Estimated
11:18AM 54.5263 20.3053 202° Southwest  Level Estimated
11:19AM 54.4315 20.2413 201° Southwest  Level Estimated
11:20AM 54.3368 20.1775 201° Southwest  Level Estimated
11:21AM 54.2420 20.1141 201° Southwest  Level Estimated
11:22AM 54.1472 20.0509 201° Southwest  Level Estimated
11:23AM 54.0523 19.9881 201° Southwest  Level Estimated
11:24AM 53.9575 19.9255 201° Southwest  Level Estimated
11:25AM 53.8625 19.8632 201° Southwest  Level Estimated
11:26AM 53.7676 19.8011 201° Southwest  Level Estimated
11:27AM 53.6726 19.7394 201° Southwest  Level Estimated
11:28AM 53.5776 19.6779 201° Southwest  Level Estimated
11:29AM 53.4826 19.6168 201° Southwest  Level Estimated
11:30AM 53.3875 19.5558 201° Southwest  Level Estimated
11:31AM 53.2924 19.4952 201° Southwest  Level Estimated
11:32AM 53.1973 19.4348 201° Southwest  Level Estimated
11:33AM 53.1021 19.3747 201° Southwest  Level Estimated
11:34AM 53.0069 19.3149 201° Southwest  Level Estimated
11:35AM 52.9117 19.2553 201° Southwest  Level Estimated
11:36AM 52.8164 19.1960 201° Southwest  Level Estimated
11:37AM 52.7211 19.1369 201° Southwest  Level Estimated
11:38AM 52.6258 19.0781 201° Southwest  Level Estimated
11:39AM 52.5304 19.0196 200° South  Level Estimated
11:40AM 52.4351 18.9613 200° South  Level Estimated
11:41AM 52.3397 18.9032 200° South  Level Estimated
11:42AM 52.2443 18.8455 200° South  Level Estimated
11:43AM 52.1488 18.7879 200° South  Level Estimated
11:44AM 52.0533 18.7306 200° South  Level Estimated
11:45AM 51.9578 18.6736 200° South  Level Estimated
11:46AM 51.8623 18.6168 200° South  Level Estimated
11:47AM 51.7667 18.5602 200° South  Level Estimated
11:48AM 51.6711 18.5039 200° South  Level Estimated
11:49AM 51.5755 18.4478 200° South  Level Estimated
11:50AM 51.4798 18.3919 200° South  Level Estimated
11:51AM 51.3842 18.3363 200° South  Level Estimated
11:52AM 51.2885 18.2809 200° South  Level Estimated
11:53AM 51.1927 18.2258 200° South  Level Estimated
11:54AM 51.0970 18.1708 200° South  Level Estimated
11:55AM 51.0012 18.1161 200° South  Level Estimated
11:56AM 50.9054 18.0617 200° South  Level Estimated
11:57AM 50.8096 18.0074 200° South  Level Estimated
11:58AM 50.7137 17.9534 200° South  Level Estimated
11:59AM 50.6178 17.8996 200° South  Level Estimated
12:00PM 50.5219 17.8460 200° South  Level Estimated
12:01PM 50.4260 17.7926 200° South  Level Estimated
12:02PM 50.3301 17.7395 199° South  Level Estimated
12:03PM 50.2341 17.6865 199° South  Level Estimated
12:04PM 50.1381 17.6338 199° South  Level Estimated
12:05PM 50.0421 17.5813 199° South  Level Estimated
12:06PM 49.9460 17.5289 199° South  Level Estimated
12:07PM 49.8499 17.4769 199° South  Level Estimated
12:08PM 49.7538 17.4250 199° South  Level Estimated
12:09PM 49.6577 17.3733 199° South  Level Estimated
12:10PM 49.5616 17.3218 199° South  Level Estimated
12:11PM 49.4654 17.2705 199° South  Level Estimated
12:12PM 49.3692 17.2194 199° South  Level Estimated
12:13PM 49.2730 17.1686 199° South  Level Estimated
12:14PM 49.1768 17.1179 199° South  Level Estimated
12:15PM 49.0806 17.0674 199° South  Level Estimated
12:16PM 48.9843 17.0171 199° South  Level Estimated
12:17PM 48.8880 16.9670 199° South  Level Estimated
12:18PM 48.7917 16.9171 199° South  Level Estimated
12:19PM 48.6953 16.8674 199° South  Level Estimated
12:20PM 48.5990 16.8179 199° South  Level Estimated
12:21PM 48.4962 16.7653 199° South  Level Estimated
12:22PM 48.3934 16.7129 199° South  Level Estimated
12:23PM 48.2906 16.6607 199° South  Level Estimated
12:24PM 48.1878 16.6087 199° South  Level Estimated
12:25PM 48.1103 16.5697 199° South  Level Estimated
12:26PM 48.1103 16.5697 146° Southeast  Level Estimated
12:27PM 48.1103 16.5697 146° Southeast  Level Estimated
12:28PM 48.1103 16.5697 146° Southeast  Level Estimated
12:29PM 48.1103 16.5697 146° Southeast  Level Estimated
12:30PM 48.1103 16.5697 146° Southeast  Level Estimated